Time;durP1;ratioP1;P1;durP2;ratioP2;P2;SDS_P1;SDS_P2;PMS_P1;PMS_P2;Temp;Humidity;BMP_temperature;BMP_pressure;BME280_temperature;BME280_humidity;BME280_pressure;Samples;Min_cycle;Max_cycle;Signal;HPM_P1;HPM_P2
2023/09/06 00:06:08;;;;;;;17.90;14.43;;;;;;;32.04;49.33;101130.41;21040504;28;20048;-62
2023/09/06 00:16:10;;;;;;;18.33;14.93;;;;;;;32.06;49.28;101130.84;21073144;28;20117;-62
2023/09/06 00:26:14;;;;;;;19.83;15.52;;;;;;;31.97;49.33;101113.97;21064198;28;20044;-63
2023/09/06 00:36:18;;;;;;;14.90;13.30;;;;;;;31.46;45.86;101143.69;21069900;28;20040;-62
2023/09/06 00:46:20;;;;;;;36.22;15.20;;;;;;;30.96;45.83;101130.50;21056649;28;20040;-62
2023/09/06 00:56:22;;;;;;;27.15;15.05;;;;;;;30.81;44.50;101158.22;21061703;28;20036;-63
2023/09/06 01:06:28;;;;;;;23.65;15.05;;;;;;;30.61;43.88;101173.94;21030514;28;20046;-62
2023/09/06 01:16:44;;;;;;;22.42;14.02;;;;;;;30.37;43.49;101163.25;21064504;28;20028;-61
2023/09/06 01:26:46;;;;;;;18.55;13.20;;;;;;;30.28;42.90;101165.31;21061512;28;20138;-62
2023/09/06 01:36:47;;;;;;;15.82;12.25;;;;;;;30.12;43.10;101165.03;21076374;28;20066;-62
2023/09/06 01:46:48;;;;;;;16.90;13.23;;;;;;;30.03;42.78;101161.41;21084999;28;20089;-61
2023/09/06 01:56:50;;;;;;;18.23;13.65;;;;;;;29.97;42.22;101164.78;21081119;28;20140;-62
2023/09/06 02:06:51;;;;;;;15.02;12.65;;;;;;;29.77;41.37;101175.59;21062761;28;20559;-62
2023/09/06 02:16:53;;;;;;;23.00;13.60;;;;;;;29.62;40.64;101185.44;21070401;28;20407;-62
2023/09/06 02:26:59;;;;;;;18.08;12.70;;;;;;;29.43;40.63;101189.75;21079786;28;20105;-62
2023/09/06 02:37:00;;;;;;;21.02;13.38;;;;;;;29.32;40.45;101198.56;21064202;28;20052;-63
2023/09/06 02:47:11;;;;;;;22.08;13.93;;;;;;;29.32;43.63;101164.75;21061008;28;20048;-63
2023/09/06 02:57:14;;;;;;;17.25;12.57;;;;;;;29.48;44.35;101190.41;21077773;28;20052;-63
2023/09/06 03:07:15;;;;;;;20.10;13.02;;;;;;;29.42;43.93;101179.66;21077362;28;20040;-66
2023/09/06 03:17:22;;;;;;;18.40;13.50;;;;;;;29.22;43.57;101165.06;21068032;28;20077;-62
2023/09/06 03:27:23;;;;;;;19.73;13.02;;;;;;;29.35;43.58;101197.88;21075542;28;20036;-61
2023/09/06 03:37:25;;;;;;;17.70;12.38;;;;;;;29.31;43.38;101199.69;21064927;28;20395;-62
2023/09/06 03:47:26;;;;;;;17.75;12.05;;;;;;;29.25;43.00;101203.03;21064513;28;20475;-64
2023/09/06 03:57:28;;;;;;;16.92;12.60;;;;;;;29.22;42.81;101207.34;21072971;28;20040;-62
2023/09/06 04:07:29;;;;;;;15.13;11.85;;;;;;;29.15;42.71;101209.84;21078340;28;20089;-61
2023/09/06 04:17:30;;;;;;;12.88;11.57;;;;;;;29.16;42.89;101211.50;21009930;28;20044;-62
2023/09/06 04:27:32;;;;;;;12.98;10.82;;;;;;;29.11;42.90;101195.56;21076320;28;20347;-62
2023/09/06 04:37:35;;;;;;;15.00;11.50;;;;;;;29.09;42.70;101194.22;21071028;28;20077;-62
2023/09/06 04:47:39;;;;;;;14.50;11.80;;;;;;;29.02;42.43;101193.91;21038964;28;20039;-64
2023/09/06 04:57:42;;;;;;;17.40;12.63;;;;;;;28.96;42.30;101187.63;21072698;28;20052;-62
2023/09/06 05:07:46;;;;;;;15.57;12.05;;;;;;;28.88;42.01;101177.97;21067828;28;20052;-62
2023/09/06 05:17:47;;;;;;;15.20;12.10;;;;;;;28.86;42.03;101185.94;21089317;28;20105;-63
2023/09/06 05:27:50;;;;;;;13.68;12.23;;;;;;;28.81;41.87;101182.41;21086830;28;20048;-61
2023/09/06 05:37:52;;;;;;;14.43;11.65;;;;;;;28.74;41.61;101163.19;21089374;28;20044;-61
2023/09/06 05:47:53;;;;;;;12.90;11.27;;;;;;;28.75;41.40;101161.22;21081806;28;20040;-62
2023/09/06 05:57:55;;;;;;;14.13;11.85;;;;;;;28.54;41.21;101133.66;21077401;28;20052;-61
2023/09/06 06:08:00;;;;;;;13.38;11.98;;;;;;;28.65;41.05;101145.47;21080183;28;20102;-65
2023/09/06 06:18:05;;;;;;;14.40;11.55;;;;;;;28.60;40.94;101137.19;21081146;28;20056;-64
2023/09/06 06:28:09;;;;;;;12.82;11.43;;;;;;;28.65;41.08;101127.75;21076526;28;20442;-63
2023/09/06 06:38:11;;;;;;;13.38;11.00;;;;;;;28.62;41.46;101112.31;21070471;28;20110;-61
2023/09/06 06:48:13;;;;;;;13.32;10.75;;;;;;;28.52;41.05;101107.03;21078324;28;20044;-63
2023/09/06 06:58:14;;;;;;;12.75;10.88;;;;;;;28.47;41.05;101110.81;21078380;28;20093;-63
2023/09/06 07:08:15;;;;;;;12.02;10.82;;;;;;;28.49;40.78;101110.47;21075878;28;20044;-62
2023/09/06 07:18:20;;;;;;;12.73;11.25;;;;;;;28.44;40.86;101103.03;21051929;28;20386;-63
2023/09/06 07:28:25;;;;;;;13.60;11.40;;;;;;;28.27;40.81;101086.06;21078588;28;20104;-64
2023/09/06 07:38:26;;;;;;;12.27;11.05;;;;;;;28.22;40.62;101074.97;21077768;28;20049;-62
2023/09/06 07:48:30;;;;;;;12.02;10.75;;;;;;;28.34;40.91;101101.34;21074690;28;20040;-63
2023/09/06 07:58:31;;;;;;;11.63;10.43;;;;;;;28.28;40.75;101074.50;21071216;28;20070;-61
2023/09/06 08:08:32;;;;;;;12.15;10.90;;;;;;;28.28;40.95;101079.31;21076524;28;20475;-63
2023/09/06 08:18:34;;;;;;;11.80;10.50;;;;;;;28.24;40.48;101084.75;21066219;28;20044;-64
2023/09/06 08:28:35;;;;;;;12.02;10.77;;;;;;;28.23;40.41;101083.09;21072528;28;20449;-63
2023/09/06 08:38:37;;;;;;;11.02;9.93;;;;;;;28.27;40.78;101095.38;21075182;28;20052;-62
2023/09/06 08:48:40;;;;;;;11.95;10.50;;;;;;;28.12;40.00;101067.66;21071205;28;20028;-62
2023/09/06 08:58:42;;;;;;;11.32;10.23;;;;;;;28.15;40.11;101069.84;21071482;28;20051;-61
2023/09/06 09:08:52;;;;;;;10.38;9.27;;;;;;;28.06;39.71;101054.91;21075321;28;20040;-64
2023/09/06 09:18:55;;;;;;;11.00;9.90;;;;;;;28.13;39.73;101077.75;21068521;28;20164;-63
2023/09/06 09:29:01;;;;;;;10.65;9.57;;;;;;;28.11;39.71;101068.84;21068363;28;20040;-63
2023/09/06 09:39:06;;;;;;;11.37;10.17;;;;;;;28.10;39.85;101072.81;21067845;28;20093;-63
2023/09/06 09:49:10;;;;;;;11.20;10.10;;;;;;;28.08;39.79;101064.69;21055844;28;20032;-62
2023/09/06 09:59:13;;;;;;;10.55;9.45;;;;;;;27.98;39.49;101053.72;21083230;28;20055;-62
2023/09/06 10:09:16;;;;;;;10.63;9.57;;;;;;;28.03;39.56;101072.44;21083660;28;20055;-62
2023/09/06 10:19:21;;;;;;;11.02;9.90;;;;;;;28.47;41.68;101070.59;21063012;28;20093;-62
2023/09/06 10:29:24;;;;;;;11.82;10.43;;;;;;;28.83;42.79;101084.34;21059457;28;20055;-62
2023/09/06 10:39:28;;;;;;;13.52;10.23;;;;;;;28.88;42.70;101056.84;21070142;28;20047;-61
2023/09/06 10:49:32;;;;;;;11.65;10.40;;;;;;;29.12;43.11;101089.31;21074430;28;20101;-62
2023/09/06 10:59:43;;;;;;;10.68;9.50;;;;;;;29.11;43.17;101076.41;21069524;28;20449;-61
2023/09/06 11:09:51;;;;;;;10.27;9.27;;;;;;;29.30;43.70;101102.22;21060903;28;20033;-62
2023/09/06 11:19:53;;;;;;;15.88;10.90;;;;;;;29.33;44.10;101093.09;21061540;28;20043;-61
2023/09/06 11:30:10;;;;;;;13.88;11.88;;;;;;;29.46;45.28;101096.03;21059061;28;20072;-63
2023/09/06 11:40:15;;;;;;;14.98;11.57;;;;;;;29.57;46.15;101105.84;21046424;28;20048;-62
2023/09/06 11:50:18;;;;;;;12.02;10.75;;;;;;;29.65;46.80;101116.28;21059779;28;20039;-62
2023/09/06 12:00:35;;;;;;;11.90;10.57;;;;;;;29.71;46.85;101126.19;21073713;28;20040;-62
2023/09/06 12:10:38;;;;;;;13.98;10.57;;;;;;;29.75;47.21;101115.06;21078692;28;20047;-62
2023/09/06 12:20:40;;;;;;;13.18;11.88;;;;;;;29.82;47.70;101127.47;21076417;28;20479;-62
2023/09/06 12:30:41;;;;;;;18.40;12.25;;;;;;;29.88;47.93;101130.94;21078016;28;20070;-62
2023/09/06 12:40:43;;;;;;;13.00;11.52;;;;;;;29.94;48.01;101128.78;21077122;28;20482;-63
2023/09/06 12:50:44;;;;;;;15.15;12.40;;;;;;;29.96;47.84;101137.72;21076478;28;20032;-62
2023/09/06 13:00:48;;;;;;;14.00;11.63;;;;;;;29.96;47.77;101130.06;21076091;28;20074;-62
2023/09/06 13:10:50;;;;;;;12.70;11.40;;;;;;;30.05;47.72;101130.84;21076005;28;20040;-61
2023/09/06 13:20:57;;;;;;;13.10;11.75;;;;;;;30.08;47.70;101129.38;21075835;28;20043;-62
2023/09/06 13:30:58;;;;;;;12.88;11.40;;;;;;;30.09;47.34;101119.72;21087667;28;20399;-62
2023/09/06 13:40:59;;;;;;;14.10;11.93;;;;;;;30.14;47.32;101116.72;21090532;28;20044;-62
2023/09/06 13:51:00;;;;;;;12.70;11.38;;;;;;;30.17;47.20;101110.41;21089928;28;20464;-62
2023/09/06 14:01:02;;;;;;;12.60;11.30;;;;;;;30.21;47.30;101111.41;21088836;28;20044;-62
2023/09/06 14:11:03;;;;;;;12.32;11.13;;;;;;;30.22;47.27;101100.94;21088863;28;20044;-62
2023/09/06 14:21:05;;;;;;;12.63;11.40;;;;;;;30.15;47.31;101070.44;21087300;28;20062;-62
2023/09/06 14:31:12;;;;;;;12.20;10.93;;;;;;;30.22;47.34;101081.16;21086589;28;20093;-62
2023/09/06 14:41:13;;;;;;;12.57;11.32;;;;;;;30.31;47.11;101093.25;21085541;28;20040;-62
2023/09/06 14:51:15;;;;;;;12.27;11.07;;;;;;;30.38;47.13;101093.53;21085394;28;20499;-62
2023/09/06 15:01:16;;;;;;;12.00;10.50;;;;;;;30.43;47.31;101081.22;21083646;28;20044;-63
2023/09/06 15:11:17;;;;;;;12.40;10.45;;;;;;;30.48;46.99;101076.19;21083189;28;20399;-62
2023/09/06 15:21:19;;;;;;;12.48;11.25;;;;;;;30.52;47.56;101059.38;21082232;28;20491;-62
2023/09/06 15:31:30;;;;;;;13.35;11.13;;;;;;;30.54;47.09;101046.56;21079809;28;20028;-63
2023/09/06 15:41:34;;;;;;;11.88;10.73;;;;;;;30.33;46.93;101012.69;21076873;28;20024;-65
2023/09/06 15:51:36;;;;;;;11.85;10.65;;;;;;;30.65;47.04;101038.47;21036916;28;20405;-62
2023/09/06 16:01:37;;;;;;;11.82;10.65;;;;;;;30.66;47.11;101031.69;21079079;28;20048;-63
2023/09/06 16:11:39;;;;;;;12.73;11.43;;;;;;;30.72;47.03;101019.03;21078622;28;20048;-62
2023/09/06 16:21:40;;;;;;;11.00;9.90;;;;;;;30.72;47.06;101002.06;21078102;28;20036;-63
2023/09/06 16:31:42;;;;;;;10.82;9.73;;;;;;;30.71;47.10;100977.84;21077799;28;20085;-63
2023/09/06 16:41:43;;;;;;;11.25;10.13;;;;;;;30.83;47.00;100986.34;21076824;28;20032;-62
2023/09/06 16:51:44;;;;;;;11.35;10.15;;;;;;;30.90;46.96;100984.97;21076265;28;20028;-62
2023/09/06 17:01:46;;;;;;;10.80;9.70;;;;;;;30.93;47.14;100972.94;21081819;28;20044;-62
2023/09/06 17:11:47;;;;;;;11.15;10.00;;;;;;;30.97;46.96;100957.75;21092783;28;20097;-62
2023/09/06 17:21:49;;;;;;;10.43;9.32;;;;;;;31.00;47.09;100950.59;21092263;28;20048;-61
2023/09/06 17:31:52;;;;;;;10.45;9.45;;;;;;;31.00;46.84;100939.28;21091602;28;20044;-61
2023/09/06 17:41:53;;;;;;;10.15;9.15;;;;;;;31.05;46.99;100933.41;21090576;28;20044;-61
2023/09/06 17:51:58;;;;;;;10.50;9.60;;;;;;;31.10;47.20;100934.00;21089514;28;20029;-62
2023/09/06 18:01:59;;;;;;;10.23;9.23;;;;;;;31.08;47.06;100912.94;21082094;28;20048;-62
2023/09/06 18:12:01;;;;;;;10.13;8.88;;;;;;;31.07;47.32;100894.34;21067072;28;20031;-61
2023/09/06 18:22:05;;;;;;;10.85;9.75;;;;;;;31.18;48.27;100889.03;21065475;28;20044;-62
2023/09/06 18:32:06;;;;;;;8.80;8.00;;;;;;;30.44;44.91;100871.09;21072540;28;20040;-62
2023/09/06 18:42:08;;;;;;;8.73;7.93;;;;;;;30.00;43.91;100856.53;21081101;28;20036;-61
2023/09/06 18:52:09;;;;;;;8.45;7.65;;;;;;;29.78;43.58;100854.88;21075388;28;20101;-62
2023/09/06 19:02:11;;;;;;;11.48;8.07;;;;;;;29.72;43.40;100857.09;21076860;28;20051;-62
2023/09/06 19:12:15;;;;;;;11.63;8.38;;;;;;;29.55;43.37;100845.94;21060279;28;20081;-61
2023/09/06 19:22:16;;;;;;;9.35;8.32;;;;;;;29.42;43.28;100827.28;21063822;28;20044;-62
2023/09/06 19:32:17;;;;;;;11.70;7.85;;;;;;;29.35;43.03;100825.81;21040447;28;20040;-62
2023/09/06 19:42:20;;;;;;;11.00;7.47;;;;;;;29.25;43.01;100817.75;21036133;28;20104;-62
2023/09/06 19:52:21;;;;;;;9.23;7.82;;;;;;;29.15;42.62;100812.53;21058515;28;20047;-61
2023/09/06 20:02:23;;;;;;;11.32;8.07;;;;;;;29.09;42.53;100817.53;21034173;28;20504;-63
2023/09/06 20:12:24;;;;;;;8.38;7.20;;;;;;;29.03;42.41;100803.97;21046054;28;20550;-63
2023/09/06 20:22:25;;;;;;;9.02;7.00;;;;;;;29.04;42.30;100797.16;21020538;28;20044;-61
2023/09/06 20:32:27;;;;;;;7.88;7.13;;;;;;;28.93;42.19;100790.25;21071751;28;20097;-62
2023/09/06 20:42:28;;;;;;;8.30;7.40;;;;;;;28.84;41.65;100776.19;21066470;28;20036;-62
2023/09/06 20:52:30;;;;;;;9.23;7.53;;;;;;;28.77;41.67;100768.28;21070771;28;20028;-63
2023/09/06 21:02:31;;;;;;;7.63;6.75;;;;;;;28.72;41.52;100757.19;21069625;28;20032;-62
2023/09/06 21:12:35;;;;;;;8.45;7.40;;;;;;;28.67;41.37;100760.19;21070272;28;20036;-62
2023/09/06 21:22:36;;;;;;;9.48;6.85;;;;;;;28.61;41.08;100762.38;21054587;28;20398;-63
2023/09/06 21:32:38;;;;;;;8.90;7.68;;;;;;;28.29;40.95;100721.59;21075432;28;20020;-62
2023/09/06 21:42:39;;;;;;;10.18;7.30;;;;;;;28.52;41.77;100764.41;21074665;28;20043;-62
2023/09/06 21:52:41;;;;;;;14.18;7.45;;;;;;;28.51;41.82;100759.94;21031061;28;20422;-65
2023/09/06 22:02:42;;;;;;;7.97;7.18;;;;;;;28.33;42.24;100728.19;21021332;28;20077;-63
2023/09/06 22:12:45;;;;;;;10.77;7.80;;;;;;;28.48;42.16;100737.28;21084750;28;20032;-62
2023/09/06 22:22:46;;;;;;;10.13;7.90;;;;;;;28.42;42.29;100742.28;21054379;28;20036;-64
2023/09/06 22:32:47;;;;;;;11.45;7.32;;;;;;;28.40;42.16;100740.94;21078303;28;20032;-63
2023/09/06 22:42:49;;;;;;;9.70;7.55;;;;;;;28.39;42.61;100747.75;21078789;28;20104;-63
2023/09/06 22:52:50;;;;;;;9.48;7.55;;;;;;;28.30;42.61;100734.50;21082576;28;20097;-64
2023/09/06 23:02:51;;;;;;;8.95;7.32;;;;;;;28.32;42.34;100746.25;21079760;28;20044;-62
2023/09/06 23:12:53;;;;;;;43.20;21.67;;;;;;;28.36;42.60;100737.97;21078204;28;20386;-62
2023/09/06 23:22:57;;;;;;;11.95;7.55;;;;;;;28.28;43.82;100736.84;21074034;28;20101;-61
2023/09/06 23:33:04;;;;;;;13.80;7.93;;;;;;;28.84;43.79;100746.03;21063676;28;20040;-60
2023/09/06 23:43:08;;;;;;;18.73;7.90;;;;;;;29.01;43.64;100727.44;21072194;28;20449;-61
2023/09/06 23:53:09;;;;;;;10.05;7.13;;;;;;;29.26;43.31;100759.41;21080199;28;20032;-59
